Time;durP1;ratioP1;P1;durP2;ratioP2;P2;SDS_P1;SDS_P2;PMS_P1;PMS_P2;Temp;Humidity;BMP_temperature;BMP_pressure;BME280_temperature;BME280_humidity;BME280_pressure;Samples;Min_cycle;Max_cycle;Signal;HPM_P1;HPM_P2
2021/01/11 00:00:12;;;;;;;3.97;3.03;;;-3.90;99.90;;;;;;5074076;28;20166;-63
2021/01/11 00:02:38;;;;;;;4.13;3.83;;;-3.80;99.90;;;;;;5074069;28;20174;-63
2021/01/11 00:05:05;;;;;;;3.60;3.40;;;-3.90;99.90;;;;;;5073947;28;20178;-63
2021/01/11 00:07:31;;;;;;;4.55;4.15;;;-3.80;99.90;;;;;;5073587;28;20431;-63
2021/01/11 00:09:56;;;;;;;4.47;4.17;;;-3.70;99.90;;;;;;5073664;28;20205;-63
2021/01/11 00:12:22;;;;;;;7.00;6.40;;;-3.70;99.90;;;;;;5074000;28;20223;-63
2021/01/11 00:14:47;;;;;;;8.93;7.17;;;-3.60;99.90;;;;;;5073762;28;20240;-64
2021/01/11 00:17:13;;;;;;;5.00;4.60;;;-3.50;99.90;;;;;;5072353;28;20189;-64
2021/01/11 00:19:39;;;;;;;4.90;4.50;;;-3.50;99.90;;;;;;5073566;28;20212;-63
2021/01/11 00:22:04;;;;;;;4.20;3.90;;;-3.40;99.90;;;;;;5073782;28;20177;-64
2021/01/11 00:24:30;;;;;;;5.33;4.50;;;-3.50;99.90;;;;;;5073526;28;20213;-63
2021/01/11 00:26:56;;;;;;;4.73;4.43;;;-3.40;99.90;;;;;;5072784;28;20189;-64
2021/01/11 00:29:22;;;;;;;4.03;3.60;;;-3.40;99.90;;;;;;5073424;28;20686;-63
2021/01/11 00:31:48;;;;;;;4.55;4.15;;;-3.40;99.90;;;;;;5073503;28;20540;-63
2021/01/11 00:34:14;;;;;;;3.60;3.30;;;-3.40;99.90;;;;;;5073564;28;20170;-63
2021/01/11 00:36:42;;;;;;;3.53;3.23;;;-3.40;99.90;;;;;;5072997;28;20187;-64
2021/01/11 00:39:07;;;;;;;4.65;3.95;;;-3.40;99.90;;;;;;5073265;28;20781;-64
2021/01/11 00:41:33;;;;;;;5.10;4.80;;;-3.40;99.90;;;;;;5073299;28;20167;-63
2021/01/11 00:43:59;;;;;;;4.47;4.13;;;-3.40;99.90;;;;;;5073416;28;20186;-64
2021/01/11 00:46:28;;;;;;;4.60;4.30;;;-3.40;99.90;;;;;;5073033;28;20222;-64
2021/01/11 00:48:54;;;;;;;4.60;4.20;;;-3.50;99.90;;;;;;5072932;28;20164;-64
2021/01/11 00:51:20;;;;;;;3.88;3.63;;;-3.50;99.90;;;;;;5073125;28;20530;-64
2021/01/11 00:53:46;;;;;;;3.90;3.60;;;-3.50;99.90;;;;;;5072990;28;20170;-64
2021/01/11 00:56:16;;;;;;;5.00;3.40;;;-3.50;99.90;;;;;;5072923;28;20478;-63
2021/01/11 00:58:42;;;;;;;3.97;3.58;;;-3.40;99.90;;;;;;5072621;28;20164;-64
2021/01/11 01:01:09;;;;;;;4.35;3.45;;;-3.40;99.90;;;;;;5073053;28;20171;-63
2021/01/11 01:03:35;;;;;;;4.22;3.40;;;-3.30;99.90;;;;;;5072805;28;20261;-64
2021/01/11 01:06:01;;;;;;;3.42;3.22;;;-3.20;99.90;;;;;;5072855;28;20198;-63
2021/01/11 01:08:26;;;;;;;3.10;2.97;;;-3.20;99.90;;;;;;5072203;28;20172;-64
2021/01/11 01:10:52;;;;;;;6.03;3.80;;;-3.20;99.90;;;;;;5072728;28;20203;-64
2021/01/11 01:13:17;;;;;;;5.83;3.70;;;-3.10;99.90;;;;;;5072679;28;20250;-64
2021/01/11 01:15:43;;;;;;;3.80;3.40;;;-3.00;99.90;;;;;;5072688;28;20183;-63
2021/01/11 01:18:09;;;;;;;4.30;3.40;;;-3.00;99.90;;;;;;5072201;28;20171;-65
2021/01/11 01:20:34;;;;;;;5.73;3.63;;;-3.00;99.90;;;;;;5072887;28;20178;-64
2021/01/11 01:23:00;;;;;;;3.90;3.23;;;-3.00;99.90;;;;;;5072530;28;20167;-64
2021/01/11 01:25:25;;;;;;;3.07;2.87;;;-3.00;99.90;;;;;;5072336;28;20171;-64
2021/01/11 01:27:51;;;;;;;3.90;3.13;;;-3.00;99.90;;;;;;5072179;28;20173;-64
2021/01/11 01:30:17;;;;;;;3.23;2.80;;;-3.00;99.90;;;;;;5072250;28;20195;-64
2021/01/11 01:32:42;;;;;;;3.97;3.67;;;-3.00;99.90;;;;;;5071128;28;20252;-63
2021/01/11 01:35:11;;;;;;;3.70;3.13;;;-3.10;99.90;;;;;;5072271;28;20520;-64
2021/01/11 01:37:37;;;;;;;4.07;3.67;;;-3.20;99.90;;;;;;5070727;28;20255;-65
2021/01/11 01:40:04;;;;;;;3.40;3.10;;;-3.10;99.90;;;;;;5071248;28;20191;-63
2021/01/11 01:42:30;;;;;;;3.28;2.97;;;-3.20;99.90;;;;;;5072414;28;20536;-64
2021/01/11 01:44:56;;;;;;;3.77;3.47;;;-3.30;99.90;;;;;;5072236;28;20181;-64
2021/01/11 01:47:21;;;;;;;3.40;3.20;;;-3.30;99.90;;;;;;5071709;28;20248;-65
2021/01/11 01:49:48;;;;;;;3.13;2.93;;;-3.30;99.90;;;;;;5072119;28;20221;-64
2021/01/11 01:52:14;;;;;;;3.58;3.13;;;-3.30;99.90;;;;;;5071864;28;20194;-64
2021/01/11 01:54:40;;;;;;;5.57;3.40;;;-3.30;99.90;;;;;;5072089;28;20197;-65
2021/01/11 01:57:06;;;;;;;2.97;2.78;;;-3.20;99.90;;;;;;5071456;28;20281;-63
2021/01/11 01:59:32;;;;;;;5.60;3.15;;;-3.20;99.90;;;;;;5071955;28;20195;-64
2021/01/11 02:01:59;;;;;;;3.37;3.03;;;-3.20;99.90;;;;;;5071878;28;20205;-63
2021/01/11 02:04:25;;;;;;;3.00;2.80;;;-3.20;99.90;;;;;;5071922;28;20513;-64
2021/01/11 02:06:56;;;;;;;3.27;3.03;;;-3.10;99.90;;;;;;5071454;28;20245;-64
2021/01/11 02:10:05;;;;;;;3.88;3.65;;;-3.10;99.90;;;;;;5072408;28;20252;-65
2021/01/11 02:12:53;;;;;;;4.28;3.90;;;-3.00;99.90;;;;;;5071793;28;20163;-66
2021/01/11 02:15:28;;;;;;;3.35;3.15;;;-2.90;99.90;;;;;;5071854;28;20202;-66
2021/01/11 02:18:01;;;;;;;3.67;3.38;;;-2.90;99.90;;;;;;5071396;28;20536;-65
2021/01/11 02:20:59;;;;;;;4.75;3.95;;;-2.90;99.90;;;;;;5071824;28;20543;-66
2021/01/11 02:23:54;;;;;;;3.63;3.33;;;-2.90;99.90;;;;;;5071611;28;20171;-65
2021/01/11 02:26:40;;;;;;;3.53;3.22;;;-2.90;99.90;;;;;;5071805;28;20214;-66
2021/01/11 02:29:25;;;;;;;3.38;3.25;;;-2.90;99.90;;;;;;5071498;28;20175;-66
2021/01/11 02:31:52;;;;;;;3.50;3.30;;;-2.80;99.90;;;;;;5070501;28;20181;-65
2021/01/11 02:34:18;;;;;;;3.50;3.20;;;-2.80;99.90;;;;;;5071562;28;20586;-66
2021/01/11 02:36:44;;;;;;;7.10;4.20;;;-2.90;99.90;;;;;;5071264;28;20183;-66
2021/01/11 02:39:09;;;;;;;4.10;3.80;;;-2.80;99.90;;;;;;5071450;28;20173;-66
2021/01/11 02:41:35;;;;;;;3.83;3.53;;;-2.90;99.90;;;;;;5071566;28;20433;-66
2021/01/11 02:44:00;;;;;;;4.53;3.03;;;-2.90;99.90;;;;;;5071636;28;20174;-66
2021/01/11 02:46:26;;;;;;;4.37;3.10;;;-2.90;99.90;;;;;;5071251;28;20183;-66
2021/01/11 02:48:56;;;;;;;3.53;3.27;;;-2.90;99.90;;;;;;5071208;28;20175;-66
2021/01/11 02:51:22;;;;;;;3.25;3.05;;;-2.90;99.90;;;;;;5073558;28;20159;-66
2021/01/11 02:54:09;;;;;;;3.97;3.57;;;-2.80;99.90;;;;;;5075501;28;20205;-66
2021/01/11 02:57:03;;;;;;;3.10;2.90;;;-2.90;99.90;;;;;;5074794;28;20248;-66
2021/01/11 02:59:36;;;;;;;4.40;4.05;;;-2.90;99.90;;;;;;5075362;28;20170;-66
2021/01/11 03:02:05;;;;;;;2.97;2.78;;;-2.90;99.90;;;;;;5075188;28;20206;-66
2021/01/11 03:04:32;;;;;;;2.65;2.53;;;-2.90;99.90;;;;;;5075224;28;20547;-66
2021/01/11 03:07:03;;;;;;;2.65;2.55;;;-2.90;99.90;;;;;;5074632;28;20187;-66
2021/01/11 03:09:30;;;;;;;3.53;3.22;;;-2.90;99.90;;;;;;5075069;28;20229;-66
2021/01/11 03:11:57;;;;;;;3.00;2.70;;;-2.70;99.90;;;;;;5073701;28;20179;-65
2021/01/11 03:14:23;;;;;;;2.92;2.22;;;-2.80;99.90;;;;;;5075054;28;20564;-66
2021/01/11 03:16:49;;;;;;;3.63;3.05;;;-2.90;99.90;;;;;;5074662;28;20193;-66
2021/01/11 03:19:14;;;;;;;3.10;2.83;;;-2.80;99.90;;;;;;5074712;28;20167;-66
2021/01/11 03:21:40;;;;;;;3.87;3.40;;;-2.80;99.90;;;;;;5074809;28;20171;-66
2021/01/11 03:24:07;;;;;;;3.40;3.20;;;-2.80;99.90;;;;;;5074726;28;20175;-66
2021/01/11 03:26:33;;;;;;;4.32;3.60;;;-2.80;99.90;;;;;;5074572;28;20205;-66
2021/01/11 03:28:58;;;;;;;3.10;2.90;;;-2.80;99.90;;;;;;5074441;28;20182;-66
2021/01/11 03:31:24;;;;;;;3.13;2.93;;;-2.70;99.90;;;;;;5074794;28;20203;-66
2021/01/11 03:33:50;;;;;;;3.27;2.97;;;-2.80;99.90;;;;;;5074554;28;20179;-66
2021/01/11 03:36:16;;;;;;;2.63;2.43;;;-2.80;99.90;;;;;;5074554;28;20237;-66
2021/01/11 03:38:42;;;;;;;2.90;2.70;;;-2.80;99.90;;;;;;5074178;28;20167;-66
2021/01/11 03:41:08;;;;;;;2.67;2.47;;;-2.80;99.90;;;;;;5074505;28;20181;-66
2021/01/11 03:43:37;;;;;;;2.72;2.63;;;-2.80;99.90;;;;;;5074550;28;20163;-65
2021/01/11 03:46:02;;;;;;;2.80;2.65;;;-2.80;99.90;;;;;;5074288;28;20183;-66
2021/01/11 03:48:28;;;;;;;2.33;2.23;;;-2.70;99.90;;;;;;5074055;28;20652;-65
2021/01/11 03:50:54;;;;;;;2.77;2.53;;;-2.60;99.90;;;;;;5074150;28;20256;-66
2021/01/11 03:53:19;;;;;;;2.60;2.40;;;-2.70;99.90;;;;;;5074366;28;20647;-66
2021/01/11 03:55:45;;;;;;;3.17;2.70;;;-2.70;99.90;;;;;;5074365;28;20592;-65
2021/01/11 03:58:10;;;;;;;2.53;2.33;;;-2.60;99.90;;;;;;5073781;28;20199;-66
2021/01/11 04:00:36;;;;;;;3.20;2.90;;;-2.60;99.90;;;;;;5073355;28;20285;-65
2021/01/11 04:03:04;;;;;;;2.67;2.50;;;-2.60;99.90;;;;;;5072026;28;20660;-66
2021/01/11 04:05:30;;;;;;;2.50;2.35;;;-2.50;99.90;;;;;;5073970;28;20198;-66
2021/01/11 04:07:56;;;;;;;2.40;2.30;;;-2.60;99.90;;;;;;5073632;28;20182;-66
2021/01/11 04:10:22;;;;;;;3.63;3.33;;;-2.60;99.90;;;;;;5074005;28;20457;-66
2021/01/11 04:12:47;;;;;;;3.80;2.90;;;-2.60;99.90;;;;;;5073889;28;20250;-66
2021/01/11 04:15:14;;;;;;;2.60;2.50;;;-2.70;99.90;;;;;;5073973;28;20220;-65
2021/01/11 04:17:39;;;;;;;3.17;2.88;;;-2.80;99.90;;;;;;5073430;28;20167;-66
2021/01/11 04:20:06;;;;;;;4.57;2.77;;;-2.70;99.90;;;;;;5073799;28;20219;-66
2021/01/11 04:22:31;;;;;;;2.20;2.10;;;-2.70;99.90;;;;;;5073474;28;20178;-66
2021/01/11 04:24:57;;;;;;;2.40;2.20;;;-2.70;99.90;;;;;;5073866;28;20163;-66
2021/01/11 04:27:23;;;;;;;4.13;3.00;;;-2.70;99.90;;;;;;5073337;28;20708;-66
2021/01/11 04:29:49;;;;;;;2.97;2.70;;;-2.80;99.90;;;;;;5073521;28;20214;-66
2021/01/11 04:32:14;;;;;;;5.20;3.00;;;-2.80;99.90;;;;;;5073665;28;20167;-66
2021/01/11 04:34:40;;;;;;;3.00;2.80;;;-2.60;99.90;;;;;;5073314;28;20168;-66
2021/01/11 04:37:09;;;;;;;2.40;2.20;;;-2.50;99.90;;;;;;5072013;28;20566;-65
2021/01/11 04:39:36;;;;;;;3.05;2.85;;;-2.60;99.90;;;;;;5073310;28;20538;-66
2021/01/11 04:42:04;;;;;;;3.08;2.83;;;-2.50;99.90;;;;;;5073485;28;20167;-66
2021/01/11 04:44:32;;;;;;;3.45;3.25;;;-2.70;99.90;;;;;;5073170;28;20731;-66
2021/01/11 04:46:59;;;;;;;3.45;3.15;;;-2.60;99.90;;;;;;5072917;28;20195;-65
2021/01/11 04:49:25;;;;;;;5.47;2.85;;;-2.70;99.90;;;;;;5072982;28;20197;-66
2021/01/11 04:51:52;;;;;;;3.00;2.80;;;-2.80;99.90;;;;;;5073235;28;20168;-67
2021/01/11 04:54:21;;;;;;;5.53;3.90;;;-2.80;99.90;;;;;;5073126;28;20191;-67
2021/01/11 04:56:48;;;;;;;4.40;3.55;;;-2.70;99.90;;;;;;5072567;28;20285;-66
2021/01/11 04:59:18;;;;;;;3.35;2.30;;;-2.70;99.90;;;;;;5073007;28;20273;-66
2021/01/11 05:01:48;;;;;;;2.72;2.53;;;-2.80;99.90;;;;;;5072814;28;20167;-66
2021/01/11 05:04:14;;;;;;;3.20;2.60;;;-2.80;99.90;;;;;;5072979;28;20521;-67
2021/01/11 05:06:44;;;;;;;3.97;3.22;;;-2.90;99.90;;;;;;5072457;28;20252;-66
2021/01/11 05:09:13;;;;;;;3.08;2.78;;;-3.00;99.90;;;;;;5072843;28;20175;-66
2021/01/11 05:11:39;;;;;;;3.28;3.08;;;-3.00;99.90;;;;;;5072760;28;20182;-66
2021/01/11 05:14:04;;;;;;;11.43;4.93;;;-3.00;99.90;;;;;;5072615;28;20550;-66
2021/01/11 05:16:30;;;;;;;3.53;3.17;;;-2.90;99.90;;;;;;5072255;28;20417;-65
2021/01/11 05:19:01;;;;;;;4.20;3.10;;;-3.00;99.90;;;;;;5072543;28;20167;-66
2021/01/11 05:21:40;;;;;;;4.22;3.85;;;-2.90;99.90;;;;;;5072567;28;20242;-66
2021/01/11 05:24:28;;;;;;;5.72;3.58;;;-2.80;99.90;;;;;;5072573;28;20166;-66
2021/01/11 05:26:53;;;;;;;3.85;2.90;;;-2.90;99.90;;;;;;5072079;28;20191;-67
2021/01/11 05:29:19;;;;;;;3.77;2.90;;;-2.80;99.90;;;;;;5072272;28;20225;-66
2021/01/11 05:32:02;;;;;;;4.30;2.80;;;-2.80;99.90;;;;;;5072426;28;20520;-66
2021/01/11 05:34:52;;;;;;;3.50;2.63;;;-2.80;99.90;;;;;;5072346;28;20516;-66
2021/01/11 05:37:37;;;;;;;4.40;2.70;;;-2.60;99.90;;;;;;5071960;28;20286;-66
2021/01/11 05:40:14;;;;;;;2.47;2.38;;;-2.50;99.90;;;;;;5072187;28;20175;-67
2021/01/11 05:42:41;;;;;;;4.30;2.78;;;-2.60;99.90;;;;;;5071077;28;20174;-66
2021/01/11 05:45:09;;;;;;;2.45;2.25;;;-2.60;99.90;;;;;;5072141;28;20167;-66
2021/01/11 05:47:52;;;;;;;4.07;3.22;;;-2.50;99.90;;;;;;5071824;28;20163;-67
2021/01/11 05:50:17;;;;;;;3.05;2.75;;;-2.50;99.90;;;;;;5071978;28;20223;-66
2021/01/11 05:52:43;;;;;;;2.80;2.50;;;-2.60;99.90;;;;;;5072120;28;20202;-67
2021/01/11 05:55:30;;;;;;;2.50;2.30;;;-2.60;99.90;;;;;;5071988;28;20174;-67
2021/01/11 05:57:58;;;;;;;3.40;3.08;;;-2.50;99.90;;;;;;5070269;28;20211;-66
2021/01/11 06:00:26;;;;;;;3.00;2.60;;;-2.40;99.90;;;;;;5070568;28;20324;-67
2021/01/11 06:02:54;;;;;;;5.05;3.63;;;-2.50;99.90;;;;;;5072033;28;20163;-67
2021/01/11 06:05:20;;;;;;;3.50;3.20;;;-2.50;99.90;;;;;;5071789;28;20179;-67
2021/01/11 06:07:46;;;;;;;2.60;2.35;;;-2.40;99.90;;;;;;5071629;28;20175;-66
2021/01/11 06:10:14;;;;;;;3.70;3.30;;;-2.40;99.90;;;;;;5071796;28;20202;-66
2021/01/11 06:12:41;;;;;;;3.47;3.17;;;-2.40;99.90;;;;;;5071835;28;20216;-66
2021/01/11 06:15:09;;;;;;;3.70;3.40;;;-2.40;99.90;;;;;;5071872;28;20169;-66
2021/01/11 06:17:36;;;;;;;3.40;3.10;;;-2.40;99.90;;;;;;5071440;28;20155;-66
2021/01/11 06:20:01;;;;;;;3.22;2.55;;;-2.40;99.90;;;;;;5070481;28;20232;-66
2021/01/11 06:22:45;;;;;;;4.33;3.57;;;-2.40;99.90;;;;;;5071660;28;20167;-66
2021/01/11 06:25:20;;;;;;;2.50;2.30;;;-2.30;99.90;;;;;;5071175;28;20241;-68
2021/01/11 06:27:55;;;;;;;3.60;3.35;;;-2.30;99.90;;;;;;5069896;28;20223;-63
2021/01/11 06:30:42;;;;;;;3.50;3.20;;;-2.20;99.90;;;;;;5071242;28;20264;-63
2021/01/11 06:33:15;;;;;;;3.13;2.60;;;-2.10;99.90;;;;;;5071593;28;20159;-63
2021/01/11 06:35:49;;;;;;;2.00;1.90;;;-2.10;99.90;;;;;;5071530;28;20186;-63
2021/01/11 06:38:30;;;;;;;3.05;2.45;;;-2.20;99.90;;;;;;5071099;28;20161;-63
2021/01/11 06:41:01;;;;;;;4.63;2.65;;;-2.10;99.90;;;;;;5068630;28;20546;-63
2021/01/11 06:43:49;;;;;;;3.83;2.95;;;-2.10;99.90;;;;;;5071450;28;20194;-63
2021/01/11 06:46:29;;;;;;;2.75;2.55;;;-2.00;99.90;;;;;;5071347;28;20206;-63
2021/01/11 06:49:05;;;;;;;3.15;2.45;;;-2.00;99.90;;;;;;5069996;28;20173;-62
2021/01/11 06:51:32;;;;;;;2.67;1.75;;;-2.10;99.90;;;;;;5071753;28;20175;-66
2021/01/11 06:54:10;;;;;;;2.90;2.58;;;-2.00;99.90;;;;;;5071393;28;20163;-65
2021/01/11 06:56:37;;;;;;;2.95;2.30;;;-2.00;99.90;;;;;;5071016;28;20303;-65
2021/01/11 06:59:16;;;;;;;2.58;2.38;;;-2.00;99.90;;;;;;5071241;28;20174;-66
2021/01/11 07:01:42;;;;;;;4.88;2.50;;;-2.00;99.90;;;;;;5071572;28;20591;-66
2021/01/11 07:04:10;;;;;;;2.15;1.85;;;-2.10;99.90;;;;;;5071256;28;20200;-66
2021/01/11 07:06:40;;;;;;;2.35;2.15;;;-2.00;99.90;;;;;;5071116;28;20186;-64
2021/01/11 07:09:13;;;;;;;2.08;1.95;;;-2.00;99.90;;;;;;5071380;28;20195;-65
2021/01/11 07:11:45;;;;;;;2.75;2.55;;;-2.00;99.90;;;;;;5071435;28;20198;-66
2021/01/11 07:14:12;;;;;;;2.78;2.20;;;-2.10;99.90;;;;;;5071300;28;20178;-66
2021/01/11 07:16:46;;;;;;;1.92;1.83;;;-2.10;99.90;;;;;;5070824;28;20183;-66
2021/01/11 07:19:13;;;;;;;2.50;2.30;;;-2.00;99.90;;;;;;5071188;28;20177;-66
2021/01/11 07:21:40;;;;;;;2.60;2.40;;;-2.10;99.90;;;;;;5071078;28;20268;-65
2021/01/11 07:24:06;;;;;;;4.00;2.90;;;-2.10;99.90;;;;;;5071240;28;20283;-66
2021/01/11 07:26:34;;;;;;;2.97;2.60;;;-2.00;99.90;;;;;;5070916;28;20194;-63
2021/01/11 07:29:02;;;;;;;3.90;3.55;;;-2.00;99.90;;;;;;5070974;28;20316;-64
2021/01/11 07:31:39;;;;;;;3.40;3.10;;;-1.90;99.90;;;;;;5070947;28;20163;-64
2021/01/11 07:34:12;;;;;;;3.30;2.70;;;-1.90;99.90;;;;;;5071211;28;20189;-64
2021/01/11 07:36:47;;;;;;;6.32;4.10;;;-2.00;99.90;;;;;;5070614;28;20187;-64
2021/01/11 07:39:23;;;;;;;4.65;3.53;;;-1.90;99.90;;;;;;5072912;28;20183;-63
2021/01/11 07:41:55;;;;;;;3.20;2.70;;;-2.00;99.90;;;;;;5068715;28;20320;-64
2021/01/11 07:44:32;;;;;;;3.60;3.30;;;-1.90;99.90;;;;;;5074350;28;20174;-64
2021/01/11 07:47:18;;;;;;;4.00;3.63;;;-1.90;99.90;;;;;;5074018;28;20183;-65
2021/01/11 07:49:52;;;;;;;4.90;3.80;;;-1.90;99.90;;;;;;5074067;28;20256;-64
2021/01/11 07:52:22;;;;;;;5.13;4.35;;;-1.90;99.90;;;;;;5074285;28;20177;-63
2021/01/11 07:55:08;;;;;;;3.85;3.28;;;-1.80;99.90;;;;;;5074360;28;20167;-63
2021/01/11 07:57:34;;;;;;;6.25;4.50;;;-1.70;99.90;;;;;;5073515;28;20286;-63
2021/01/11 08:00:10;;;;;;;4.33;3.80;;;-1.70;99.90;;;;;;5074273;28;20201;-64
2021/01/11 08:02:37;;;;;;;4.88;4.25;;;-1.60;99.90;;;;;;5074081;28;20163;-63
2021/01/11 08:05:04;;;;;;;5.65;4.63;;;-1.60;99.90;;;;;;5074182;28;20837;-64
2021/01/11 08:07:33;;;;;;;6.35;4.07;;;-1.50;99.90;;;;;;5073698;28;20244;-64
2021/01/11 08:10:00;;;;;;;6.25;5.07;;;-1.60;99.90;;;;;;5074536;28;20212;-64
2021/01/11 08:12:27;;;;;;;8.77;6.07;;;-1.60;99.90;;;;;;5074281;28;20179;-64
2021/01/11 08:15:04;;;;;;;5.97;5.38;;;-1.60;99.90;;;;;;5073832;28;20579;-64
2021/01/11 08:17:31;;;;;;;7.15;5.43;;;-1.60;99.90;;;;;;5073479;28;20655;-64
2021/01/11 08:20:00;;;;;;;8.30;6.68;;;-1.60;99.90;;;;;;5073628;28;20172;-64
2021/01/11 08:22:28;;;;;;;7.13;5.53;;;-1.50;99.90;;;;;;5073883;28;20174;-64
2021/01/11 08:24:59;;;;;;;6.40;5.50;;;-1.50;99.90;;;;;;5073576;28;20167;-63
2021/01/11 08:27:35;;;;;;;9.52;7.28;;;-1.50;99.90;;;;;;5073379;28;20206;-64
2021/01/11 08:30:11;;;;;;;6.88;5.60;;;-1.50;99.90;;;;;;5073297;28;20204;-64
2021/01/11 08:32:38;;;;;;;7.85;6.20;;;-1.40;99.90;;;;;;5073720;28;20170;-64
2021/01/11 08:35:07;;;;;;;8.07;6.28;;;-1.40;99.90;;;;;;5073461;28;20174;-63
2021/01/11 08:37:33;;;;;;;9.57;5.30;;;-1.40;99.90;;;;;;5073160;28;20561;-64
2021/01/11 08:40:09;;;;;;;6.70;5.83;;;-1.40;99.90;;;;;;5073300;28;20171;-64
2021/01/11 08:42:36;;;;;;;9.68;6.80;;;-1.30;99.90;;;;;;5073148;28;20159;-64
2021/01/11 08:45:32;;;;;;;7.43;6.70;;;-1.30;99.90;;;;;;5073321;28;20539;-62
2021/01/11 08:48:09;;;;;;;7.55;5.80;;;-1.20;99.90;;;;;;5072416;28;20190;-63
2021/01/11 08:50:37;;;;;;;6.13;5.30;;;-1.10;99.90;;;;;;5073222;28;20191;-64
2021/01/11 08:53:29;;;;;;;9.82;6.60;;;-1.00;99.90;;;;;;5072919;28;20682;-63
2021/01/11 08:56:12;;;;;;;10.20;6.53;;;-1.10;99.90;;;;;;5073100;28;20190;-62
2021/01/11 08:58:46;;;;;;;9.85;6.30;;;-1.00;99.90;;;;;;5071755;28;20660;-62
2021/01/11 09:01:16;;;;;;;9.43;7.30;;;-1.00;99.90;;;;;;5071003;28;20174;-63
2021/01/11 09:03:44;;;;;;;8.50;6.28;;;-1.00;99.90;;;;;;5072516;28;20619;-63
2021/01/11 09:06:10;;;;;;;9.88;6.35;;;-0.90;99.90;;;;;;5072537;28;20187;-63
2021/01/11 09:08:36;;;;;;;13.13;6.30;;;-0.90;99.90;;;;;;5072027;28;20175;-63
2021/01/11 09:11:11;;;;;;;11.07;6.67;;;-0.80;99.90;;;;;;5072690;28;20222;-63
2021/01/11 09:13:37;;;;;;;11.82;6.90;;;-0.80;99.90;;;;;;5072423;28;20488;-63
2021/01/11 09:16:15;;;;;;;7.33;6.50;;;-0.70;99.90;;;;;;5072728;28;20274;-63
2021/01/11 09:18:41;;;;;;;10.35;6.40;;;-0.70;99.90;;;;;;5071915;28;20662;-63
2021/01/11 09:21:07;;;;;;;8.13;5.57;;;-0.60;99.90;;;;;;5072600;28;20199;-63
2021/01/11 09:23:33;;;;;;;11.00;6.90;;;-0.60;99.90;;;;;;5072467;28;20167;-63
2021/01/11 09:26:00;;;;;;;9.90;6.97;;;-0.50;99.90;;;;;;5072246;28;20689;-63
2021/01/11 09:28:27;;;;;;;13.32;7.95;;;-0.40;99.90;;;;;;5071872;28;20175;-63
2021/01/11 09:30:53;;;;;;;6.05;4.75;;;-0.40;99.90;;;;;;5072106;28;20194;-63
2021/01/11 09:33:19;;;;;;;11.48;6.30;;;-0.30;99.90;;;;;;5072381;28;20195;-62
2021/01/11 09:35:45;;;;;;;33.43;19.00;;;-0.20;99.90;;;;;;5070502;28;20190;-64
2021/01/11 09:38:11;;;;;;;8.90;5.90;;;-0.20;99.90;;;;;;5069688;28;20160;-63
2021/01/11 09:40:37;;;;;;;8.82;6.30;;;-0.10;99.90;;;;;;5072128;28;20456;-62
2021/01/11 09:43:03;;;;;;;7.50;5.30;;;0.00;99.90;;;;;;5072165;28;20593;-63
2021/01/11 09:45:28;;;;;;;5.93;5.30;;;0.00;99.90;;;;;;5071912;28;20254;-63
2021/01/11 09:47:54;;;;;;;6.10;5.50;;;0.10;99.90;;;;;;5071917;28;20656;-64
2021/01/11 09:50:19;;;;;;;6.10;5.40;;;0.20;99.90;;;;;;5072107;28;20199;-64
2021/01/11 09:52:45;;;;;;;7.53;5.20;;;0.20;99.90;;;;;;5071697;28;20167;-63
2021/01/11 09:55:12;;;;;;;6.97;4.70;;;0.30;99.90;;;;;;5071916;28;20170;-63
2021/01/11 09:57:38;;;;;;;5.63;5.05;;;0.30;99.90;;;;;;5071490;28;20926;-63
2021/01/11 10:00:11;;;;;;;4.75;4.18;;;0.40;99.90;;;;;;5071080;28;20585;-63
2021/01/11 10:02:38;;;;;;;5.78;3.70;;;0.40;99.90;;;;;;5071811;28;20186;-63
2021/01/11 10:05:04;;;;;;;6.82;4.90;;;0.50;99.90;;;;;;5072037;28;20493;-63
2021/01/11 10:07:29;;;;;;;8.60;4.50;;;0.70;99.90;;;;;;5070243;28;20227;-63
2021/01/11 10:09:55;;;;;;;6.40;4.80;;;0.70;99.90;;;;;;5071334;28;20477;-63
2021/01/11 10:12:20;;;;;;;5.47;4.03;;;0.70;99.90;;;;;;5071649;28;20200;-63
2021/01/11 10:14:46;;;;;;;5.90;4.63;;;0.80;99.90;;;;;;5071777;28;20659;-61
2021/01/11 10:17:11;;;;;;;5.10;4.10;;;0.80;99.90;;;;;;5071434;28;20196;-64
2021/01/11 10:19:38;;;;;;;4.60;4.20;;;0.90;99.90;;;;;;5071384;28;20175;-63
2021/01/11 10:22:04;;;;;;;4.50;4.10;;;1.00;99.90;;;;;;5070316;28;20171;-63
2021/01/11 10:24:29;;;;;;;4.13;3.70;;;1.10;99.90;;;;;;5070829;28;20457;-64
2021/01/11 10:26:55;;;;;;;3.40;3.10;;;1.10;99.90;;;;;;5071324;28;20435;-63
2021/01/11 10:29:23;;;;;;;5.40;4.40;;;1.20;99.90;;;;;;5071137;28;20163;-63
2021/01/11 10:31:49;;;;;;;3.95;3.55;;;1.20;99.90;;;;;;5071619;28;20175;-63
2021/01/11 10:34:17;;;;;;;7.90;3.93;;;1.20;99.90;;;;;;5071515;28;20160;-62
2021/01/11 10:36:49;;;;;;;4.10;3.70;;;1.20;99.90;;;;;;5071201;28;20916;-63
2021/01/11 10:39:17;;;;;;;3.85;3.55;;;1.20;99.90;;;;;;5070854;28;20165;-62
2021/01/11 10:41:42;;;;;;;5.57;4.00;;;1.20;99.90;;;;;;5071225;28;20198;-64
2021/01/11 10:44:09;;;;;;;3.53;3.23;;;1.30;99.90;;;;;;5071736;28;20676;-64
2021/01/11 10:46:35;;;;;;;4.63;4.20;;;1.30;99.90;;;;;;5070808;28;20192;-67
2021/01/11 10:49:01;;;;;;;6.35;4.68;;;1.40;99.90;;;;;;5071301;28;20202;-67
2021/01/11 10:51:27;;;;;;;5.30;4.27;;;1.40;99.90;;;;;;5071193;28;20562;-67
2021/01/11 10:53:52;;;;;;;4.20;3.80;;;1.50;99.90;;;;;;5071198;28;20456;-63
2021/01/11 10:56:18;;;;;;;4.63;4.13;;;1.50;99.90;;;;;;5070845;28;20426;-63
2021/01/11 10:58:44;;;;;;;3.95;3.55;;;1.40;99.90;;;;;;5070795;28;20176;-63
2021/01/11 11:01:13;;;;;;;4.73;3.40;;;1.40;99.90;;;;;;5071322;28;20177;-65
2021/01/11 11:03:39;;;;;;;5.55;3.70;;;1.50;99.90;;;;;;5070488;28;20398;-65
2021/01/11 11:06:05;;;;;;;4.95;4.55;;;1.50;99.90;;;;;;5070887;28;20612;-63
2021/01/11 11:08:31;;;;;;;4.10;3.28;;;1.50;99.90;;;;;;5069733;28;20238;-64
2021/01/11 11:10:57;;;;;;;4.87;4.33;;;1.60;99.90;;;;;;5071029;28;20197;-65
2021/01/11 11:13:22;;;;;;;5.13;4.40;;;1.50;99.90;;;;;;5074766;28;20190;-63
2021/01/11 11:15:48;;;;;;;6.83;4.33;;;1.60;99.90;;;;;;5074968;28;20427;-65
2021/01/11 11:18:15;;;;;;;4.40;3.93;;;1.70;99.90;;;;;;5074331;28;20165;-66
2021/01/11 11:20:43;;;;;;;4.82;3.90;;;1.70;99.90;;;;;;5074942;28;20197;-62
2021/01/11 11:23:08;;;;;;;4.25;3.90;;;1.70;99.90;;;;;;5074528;28;20181;-64
2021/01/11 11:25:34;;;;;;;7.03;4.07;;;1.70;99.90;;;;;;5074358;28;20187;-62
2021/01/11 11:28:01;;;;;;;4.93;3.25;;;1.70;99.90;;;;;;5074200;28;20170;-62
2021/01/11 11:30:27;;;;;;;3.92;3.25;;;1.70;99.90;;;;;;5074434;28;20200;-62
2021/01/11 11:32:52;;;;;;;3.80;3.47;;;1.70;99.90;;;;;;5074744;28;20169;-62
2021/01/11 11:35:20;;;;;;;4.90;4.50;;;1.70;99.90;;;;;;5074261;28;20254;-63
2021/01/11 11:37:47;;;;;;;3.30;3.00;;;1.70;99.90;;;;;;5074083;28;20172;-63
2021/01/11 11:40:14;;;;;;;4.40;4.00;;;1.70;99.90;;;;;;5074146;28;20212;-63
2021/01/11 11:42:41;;;;;;;4.70;4.10;;;1.80;99.90;;;;;;5074716;28;20461;-62
2021/01/11 11:45:12;;;;;;;3.17;2.83;;;1.80;99.90;;;;;;5074323;28;20484;-62
2021/01/11 11:47:39;;;;;;;5.63;4.80;;;1.90;99.90;;;;;;5074257;28;20928;-64
2021/01/11 11:50:13;;;;;;;4.10;3.80;;;1.90;99.90;;;;;;5073908;28;20539;-64
2021/01/11 11:52:39;;;;;;;3.80;3.50;;;2.00;99.90;;;;;;5074202;28;20191;-63
2021/01/11 11:55:07;;;;;;;5.47;4.50;;;2.00;99.90;;;;;;5073841;28;20487;-63
2021/01/11 11:57:33;;;;;;;4.33;3.93;;;2.00;99.90;;;;;;5073806;28;20209;-62
2021/01/11 11:59:58;;;;;;;4.00;3.70;;;1.90;99.90;;;;;;5074006;28;20889;-68
2021/01/11 12:02:24;;;;;;;4.20;3.80;;;1.90;99.90;;;;;;5073879;28;20400;-67
2021/01/11 12:04:49;;;;;;;4.07;3.30;;;1.90;99.90;;;;;;5074291;28;20183;-67
2021/01/11 12:07:16;;;;;;;3.60;3.30;;;2.00;99.90;;;;;;5073622;28;20184;-69
2021/01/11 12:09:43;;;;;;;6.63;5.60;;;2.00;99.90;;;;;;5073778;28;20211;-65
2021/01/11 12:12:12;;;;;;;5.63;4.50;;;2.00;99.90;;;;;;5071980;28;20827;-64
2021/01/11 12:14:38;;;;;;;5.37;4.87;;;2.00;99.90;;;;;;5073929;28;20396;-63
2021/01/11 12:17:04;;;;;;;14.20;11.70;;;2.00;99.90;;;;;;5073081;28;20432;-63
2021/01/11 12:19:30;;;;;;;4.10;3.80;;;2.10;99.90;;;;;;5072755;28;20167;-62
2021/01/11 12:21:55;;;;;;;5.10;4.10;;;2.10;99.90;;;;;;5073531;28;20416;-62
2021/01/11 12:24:21;;;;;;;3.37;3.17;;;2.10;99.90;;;;;;5072699;28;20194;-63
2021/01/11 12:26:48;;;;;;;6.63;4.77;;;2.10;99.90;;;;;;5072700;28;20188;-64
2021/01/11 12:29:15;;;;;;;4.33;3.93;;;2.10;99.90;;;;;;5072917;28;20184;-64
2021/01/11 12:31:41;;;;;;;4.20;3.90;;;2.10;99.90;;;;;;5073105;28;20418;-64
2021/01/11 12:34:07;;;;;;;5.77;4.40;;;2.10;99.90;;;;;;5073207;28;20915;-64
2021/01/11 12:36:34;;;;;;;4.13;3.73;;;2.10;99.90;;;;;;5073193;28;20422;-64
2021/01/11 12:39:02;;;;;;;4.30;4.00;;;2.10;99.90;;;;;;5073097;28;20492;-64
2021/01/11 12:41:28;;;;;;;5.97;4.20;;;2.20;99.90;;;;;;5073241;28;20486;-64
2021/01/11 12:43:54;;;;;;;3.60;3.30;;;2.20;99.90;;;;;;5073376;28;20490;-65
2021/01/11 12:46:22;;;;;;;4.87;4.30;;;2.30;99.90;;;;;;5072901;28;20193;-64
2021/01/11 12:48:48;;;;;;;3.50;3.20;;;2.30;99.90;;;;;;5072908;28;20408;-64
2021/01/11 12:51:15;;;;;;;4.70;4.30;;;2.30;99.90;;;;;;5072923;28;20472;-64
2021/01/11 12:53:44;;;;;;;6.10;3.13;;;2.30;99.90;;;;;;5073162;28;20434;-64
2021/01/11 12:56:12;;;;;;;5.37;4.37;;;2.40;99.90;;;;;;5072037;28;20422;-63